arxmliv
arxmliv build tool
 
KWARC group
LaTeXML
About
   
 

Detailed info

Back to Homepage

List of missing_macros

No. Date Filename num_warningnum_errornum_xmargok_xmargnum_xmathok_xmathMissing macros
155401 2013-02-28 08:43:26 /0108/hep-th.0108051 124130000[\Line, \GlueArc, \Oval, \DashArrowLine, \Curve, \Vertex, \SetScale, \psfrag, \LongArrow, \DashLine, \Gluon, \setstretch].
155402 2013-02-28 08:43:23 /0108/hep-th.0108031 109140000[\Text, \Line, \Vertex, \CArc, \setstretch]; 9 missing files[harvard%Harvardstylecitations.sty, conc, equations%extrasforequations%.sty, color%forcoloured/shadedboxes.sty, maplems%formapleoutput%.sty, graphics%forincludingfancygraphics%.sty, makeidx%foran
155403 2013-02-28 08:43:22 /0108/hep-th.0108081 31710000[\be, \abstracts, \ee]; 1 missing file[ws.sty].
155404 2013-02-28 08:40:19 /0108/hep-th.0108032 1630000[\@thanks, \@topnum, \@title].
155405 2013-02-28 08:40:09 /0108/hep-th.0108037 980000[\chapterauthors].
155406 2013-02-28 08:39:37 /0108/hep-th.0108018 10010000[\setstretch].
155407 2013-02-28 08:39:20 /0108/hep-ph.0108252 190110000[\ArrowArc, \Line, \Photon, \ArrowArcn, \Text, \ArrowLine, \DashCArc, \SetScale, \LongArrow, \CArc, \PhotonArc].
155408 2013-02-28 08:38:45 /0108/hep-th.0108013 74180000[{centering}].
155409 2013-02-28 08:38:25 /0108/hep-th.0108028 9260000[\dfrac].
155410 2013-02-28 08:37:52 /0108/hep-th.0108003 4910000[\oddsidemargin].
155411 2013-02-28 08:37:07 /0108/hep-th.0108005 2960000[\Text, \SetScale, \CArc, \DashLine]; 2 missing files[flafter.sty, afterpage.sty].
155412 2013-02-28 08:36:57 /0108/hep-th.0108008 5510000[{centering}].
155413 2013-02-28 08:35:55 /0108/hep-th.0108009 2280000[\endxy, \xyoption, \psfrag, {psfrags}, \citet, \xy, \ar].
155414 2013-02-28 08:35:38 /0108/hep-th.0108011 1340000[\copyrightyear, \SetInternalRegister, \layoutstyle, \classification].
155415 2013-02-28 08:35:20 /0108/hep-ph.0108275 3210000[\@ignoretrue].
155416 2013-02-28 08:34:41 /0108/hep-ph.0108262 19540000[\scalarbacky, \N, \fermion, \pmidx, \REG, \drawline, \scalarbackx, \THICKLINES, \pmidy, \drawarrow, \SE, \ATBASE, \scalar, \E, \NE]; 1 missing file[FEYNMAN].
155417 2013-02-28 08:34:37 /0108/hep-ph.0108258 860000[{turn}].
155418 2013-02-28 08:34:11 /0108/hep-ph.0108261 410000[\overlay].
155419 2013-02-28 08:34:10 /0108/hep-ph.0108260 410000[\firstfigfalse].
155420 2013-02-28 08:33:22 /0108/hep-ph.0108249 1100000[\PRD, \Journal, \abstracts, \rotatebox, \epsfig]; 1 missing file[ws.sty].
155421 2013-02-28 08:33:09 /0108/hep-ph.0108207 91660000[\fmffreeze, {fmffile}, \fmf, \fmfbottom, \fmftop, \fmfv, \fmfdot, \fmfpen, {fmfgraph*}, \cmidrule, \fmfleft, \fmfforce, \fmfset, \fmfright, \toprule, \bottomrule].
155422 2013-02-28 08:32:58 /0108/hep-ph.0108245 650000[\GeV, \tb]; 1 missing file[user5.sty].
155423 2013-02-28 08:30:47 /0108/hep-ph.0108213 930000[\psfrag].
155424 2013-02-28 08:30:04 /0108/hep-ph.0108201 4330000[{turn}].
155425 2013-02-28 08:29:56 /0108/hep-ph.0108200 2530000[\ArrowLine, \Photon, \DashArrowArc].
155426 2013-02-28 08:29:47 /0108/hep-ph.0108190 94220000[\Line, \ArrowArc, \ArrowLine, \GCirc, \DashCArc, \Photon, \PhotonArc, \DashLine].
155427 2013-02-28 08:29:30 /0108/hep-ph.0108195 25130000[\reference, \headings]; 1 missing file[sussp.sty].
155428 2013-02-28 08:29:28 /0108/hep-ph.0108205 9120000[\psnfssproblemoption, \MakeShortVerb, \layoutstyle, \variorefoptionifavailable]; 3 missing files[ttct0001.sty, shortvrb.sty, {aipcheck}].
155429 2013-02-28 08:29:22 /0108/hep-ph.0108204 360000[\ArrowLine, \Text, \SetWidth, \SetScale, \DashLine, \DashArrowLine].
155430 2013-02-28 08:29:18 /0108/hep-ph.0108173 30210000[\citen].
155431 2013-02-28 08:27:05 /0108/hep-ph.0108184 820000[\abstracts]; 1 missing file[ws.sty].
155432 2013-02-28 08:27:01 /0108/hep-ph.0108159 49670000[\@esphack, \@bsphack].
155433 2013-02-28 08:26:54 /0108/hep-ph.0108167 270000[\ArrowArc, \Text, \ArrowLine, \Photon, \ArrowArcn, \DashArrowArc, \DashArrowLine].
155434 2013-02-28 08:26:43 /0108/hep-ph.0108169 1330000[\SetInternalRegister, \layoutstyle, \classification].
155435 2013-02-28 08:26:12 /0108/hep-ph.0108160 0190000[{fmffile}, \slashed, \fmfrightn, \fmfblob, {fmfgraph}, \fmf, \fmfv, \dateenglish, \extrasenglish, \fmfpen, \fmfleft, \fmfright, \captionsenglish].
155436 2013-02-28 08:25:59 /0108/hep-ph.0108151 4630000[\epsfbox, \epsfysize]; 1 missing file[{epsf}].
155437 2013-02-28 08:25:18 /0108/hep-ph.0108152 950000[\ArrowLine, \Text, \Vertex, \Line, \CArc].
155438 2013-02-28 08:24:45 /0108/hep-ph.0108117 3650000[\Line, \ArrowLine, \Text, \hbt, \Photon].
155439 2013-02-28 08:24:15 /0108/hep-ph.0108099 103260000[{comment}, \geometry].
155440 2013-02-28 08:23:51 /0108/hep-ph.0108135 8510000[\rotate].
155441 2013-02-28 08:23:36 /0108/hep-ph.0108133 15470000[{references}, \titlematter, \acknowledgments]; 1 missing file[menuproc.sty].
155442 2013-02-28 08:21:50 /0108/hep-ph.0108109 010000[\cny].
155443 2013-02-28 08:21:47 /0108/hep-ph.0108111 1060000[\Vertex, \Line, \SetWidth, \SetScale, \CArc]; 1 missing file[ws.sty].
155444 2013-02-28 08:20:30 /0108/hep-ph.0108081 171340000[\Zprime, \Uone, \DS, \DiracGamma, \preprintwidth, \photon, \muon, \DG, \neutrino, \SUtwo, \DB, \alphaem, \electron, \geometry, \lepton, \particle, \DGL, \qbottom, \Mapsto, \preprints, \qstrange, \Wminus, \Znaught, \Gfermi, \Wpart, \DiracSlash, \anticommu
155445 2013-02-28 08:20:12 /0108/hep-ph.0108094 2100000[\Text, \ArrowLine, \Photon, \Gluon].
155446 2013-02-28 08:20:11 /0108/hep-ph.0108105 0390000[\epsfbox, \abstracts, \epsfxsize]; 1 missing file[ws.sty].
155447 2013-02-28 08:19:30 /0108/hep-ph.0108071 3870000[\GBox, \Vertex, \Text, \Line, \LongArrow, \Boxc, \DashLine].
155448 2013-02-28 08:19:25 /0108/hep-ph.0108085 1280000[\psfig]; 1 missing file[psfig].
155449 2013-02-28 08:19:14 /0108/hep-ph.0108080 40260000[\Zprime, \DS, \Uone, \preprintwidth, \photon, \muon, \DG, \neutrino, \DB, \SUtwo, \electron, \Wprime, \geometry, \unit, \lepton, \particle, \preprints, \tauon, \Znaught, \DiracBar, \Wpart, \Gfermi, \thetaW]; 3 missing files[pptitle.sty, particles.sty, nu
155450 2013-02-28 08:19:12 /0108/hep-ph.0108078 950000[\includegraphics, \epsfbox, \abstracts, \epsfxsize]; 1 missing file[ws.sty].
155451 2013-02-28 08:18:55 /0108/hep-ph.0108082 050000[\Journal, \epsfbox, \abstracts, \epsfxsize]; 1 missing file[ws.sty].
155452 2013-02-28 08:17:57 /0108/hep-ph.0108057 2250000[\ArrowLine, \Text, \Vertex, \Line, \CArc].
155453 2013-02-28 08:17:11 /0108/hep-ph.0108050 1340000[\kword, \abst, \inst, \recdate].
155454 2013-02-28 08:17:03 /0108/hep-ph.0108048 1410000[\arc].
155455 2013-02-28 08:16:46 /0108/hep-ph.0108049 060000[\PLB, \PRD, \Journal, \abstracts, \NPB]; 1 missing file[ws.sty].
155456 2013-02-28 08:15:34 /0108/hep-ph.0108034 2560000[\Line, \Text, \SetWidth, \Photon, \CArc, {centering}].
155457 2013-02-28 08:15:14 /0108/hep-ph.0108029 310000[\@cite].
155458 2013-02-28 08:14:57 /0108/hep-ph.0108032 120000[{centering}]; 1 missing file[picinpar.sty].
155459 2013-02-28 08:14:52 /0108/hep-ph.0108033 870000[\Line, \SetWidth, \SetScale, \CArc, \PText, \SetColor].
155460 2013-02-28 08:14:34 /0108/hep-ph.0108019 8310000[{sideways}].
155461 2013-02-28 08:13:48 /0108/hep-lat.0108026 440000[\abstracts, \epsfig]; 1 missing file[ws.sty].
155462 2013-02-28 08:13:46 /0108/hep-lat.0108023 3110000[\psfrag].
155463 2013-02-28 08:12:57 /0108/hep-ph.0108005 2420000[\Braket]; 1 missing file[HEP.sty].
155464 2013-02-28 08:12:44 /0108/hep-lat.0108019 4580000[\mc, \kx, \half, \ktp, \kv, \muq, \wt, \za, \ctildet, \cT, \ka, \rme, \third, \zetabar, \zp, \fa, \bfz, \cv, \fv, \fap, \bv, \ct, \zv, \mq, \csw, \bmu, \kt, \tr, \kvp, \mur, \rhobarprime, \mr, \ca, \Mr, \fp, \rmR, \be, \tbm, \rhoprime, \tba, \tbv, \ee, \
155465 2013-02-28 08:12:38 /0108/hep-lat.0108015 440000[\copyrightyear, \SetInternalRegister, \layoutstyle, \classification].
155466 2013-02-28 08:12:22 /0108/hep-lat.0108022 1110000[{centering}].
155467 2013-02-28 08:11:49 /0108/hep-lat.0108003 7210000[\slashed].
155468 2013-02-28 08:11:39 /0108/hep-lat.0108006 610000[{centering}].
155469 2013-02-28 08:11:29 /0108/hep-ex.0108041 5240000[\theappendix]; 3 missing files[shortvrb.sty, afterpage.sty, chappg.sty].
155470 2013-02-28 08:10:58 /0108/hep-lat.0108011 3020000[\instit]; 1 missing file[qmc.sty].
155471 2013-02-28 08:10:35 /0108/hep-ex.0108048 1180000[\includegraphics, \PRD, \PLB, \Journal, \abstracts, \ZPC, \resizebox]; 1 missing file[ws.sty].
155472 2013-02-28 08:10:24 /0108/hep-ex.0108052 8140000[\NIMA, \PRD, \PLB, \Journal, \epsfbox, \abstracts, \epsfxsize]; 1 missing file[ws.sty].
155473 2013-02-28 08:10:24 /0108/hep-ex.0108053 110000[\address].
155474 2013-02-28 08:10:15 /0108/hep-ex.0108040 0700000[\OliveGreen]; 1 missing file[colordvi.sty].
155475 2013-02-28 08:10:14 /0108/hep-ex.0108012 88200000[\bgamma, \bone, \Euro, \psfig, \epsfig, \bto, \bp, \subsubsubsection, \thechapter, \bbar, \bPsi, \btwo, \@currentID, \url, \sfb]; 3 missing files[tdrdefinitions.sty, axocolor.sty, tdr_master.sty].
155476 2013-02-28 08:09:51 /0108/hep-ex.0108042 160000[\affil, \citep, \runninghead, \correspondence, \firstpage, \pubyear]; 1 missing file[icrc.cls].
155477 2013-02-28 08:09:37 /0108/hep-ex.0108029 040000[\copyrightyear, {theacknowledgments}, \layoutstyle, \classification].
155478 2013-02-28 08:09:02 /0108/hep-ex.0108021 8330000[\PLB, \NIMA, \NPB, \Journal, \epsfbox, \abstracts, \be, \PRL, \ee, \epsfxsize]; 1 missing file[ws.sty].
155479 2013-02-28 08:08:49 /0108/hep-ex.0108009 2510000[\smaller].
155480 2013-02-28 08:08:34 /0108/gr-qc.0108086 42230000[\TitleOfDossier, \AuteurCourant, \FirstPage, \ComParit, \address, \Journal, \SousRubrique, {Resume}, \TitreDeDossier, \Year, \PIT, \Rubrique, \Volume, \TitreCourant, \keywords, \motscles, {Ftitle}, {Abstract}, \LastPage, \Add, \PresentePar, \PXHY, \Recu]
155481 2013-02-28 08:08:11 /0108/hep-ex.0108017 810000[\smaller].
155482 2013-02-28 08:07:58 /0108/hep-ex.0108016 3110000[{fmffile}, \fmfrightn, {fmfgraph*}, \fmfleftn, \fmf, \fmfset, \fmflabel, \fmfdot].
155483 2013-02-28 08:04:18 /0108/gr-qc.0108043 2710000[\theappendix].
155484 2013-02-28 08:04:02 /0108/gr-qc.0108062 020000[\pssilent]; 1 missing file[psfig].
155485 2013-02-28 08:02:58 /0108/gr-qc.0108041 2030000[\SetTexturesEPSFSpecial, \HideDisplacementBoxes]; 1 missing file[BoxedEPS].
155486 2013-02-28 08:02:16 /0108/gr-qc.0108026 230000[Align, \+, \columns].
155487 2013-02-28 07:59:21 /0108/gr-qc.0108007 2020000[\emline, \bezier].
155488 2013-02-28 07:58:50 /0108/gr-qc.0108011 320000[\psfrag].
155489 2013-02-28 07:58:22 /0108/gr-qc.0108003 7510000[\@mathmargin].
155490 2013-02-28 07:58:03 /0108/cs.0108005 33260000[\msrtrno, \psfig, \namecite]; 3 missing files[fullname.sty, psfig, msrtr.sty].
155491 2013-02-28 07:57:56 /0108/cs.0108022 320000[\address, \name].
155492 2013-02-28 07:57:01 /0108/cs.0108008 2230000[\email, \shortcite]; 2 missing files[tlp.cls, .ldf].
155493 2013-02-28 07:56:01 /0108/cs.0108018 1110000[\conferenceinfo, \affaddr, \numberofauthors, \titlenote, \terms, \alignauthor, \keywords, \CopyrightYear, \email, \category].
155494 2013-02-28 07:55:56 /0108/cs.0108011 010000[\psfrag].
155495 2013-02-28 07:55:31 /0108/cond-mat.0108546 020000[\psfig]; 1 missing file[psfig].
155496 2013-02-28 07:54:35 /0108/cond-mat.0108517 850000[\ls, \psfrag, \affiliation, \ns, \acknowledgments]; 1 missing file[jfm.cls].
155497 2013-02-28 07:54:16 /0108/cond-mat.0108514 2010000[\theappendix].
155498 2013-02-28 07:53:00 /0108/cond-mat.0108510 020000[\psfig]; 1 missing file[psfig].
155499 2013-02-28 07:51:59 /0108/cond-mat.0108484 830000[\institute, \acknowledgements, {opening}].
155500 2013-02-28 07:51:57 /0108/cond-mat.0108487 410000[\address].
155501 2013-02-28 07:50:59 /0108/cond-mat.0108476 550000[\twofigures, \@affiliation].
155502 2013-02-28 07:50:40 /0108/cond-mat.0108463 710000[\psfrag].
155503 2013-02-28 07:50:08 /0108/cond-mat.0108471 540000[\@affiliation, \onefigure].
155504 2013-02-28 07:49:21 /0108/cond-mat.0108443 25380000[\citelow, \epsfbox, \abstracts, \epsfxsize]; 1 missing file[ws.sty].
155505 2013-02-28 07:48:31 /0108/cond-mat.0108410 3410000[\theappendix].
155506 2013-02-28 07:46:04 /0108/cond-mat.0108398 340000[\ls, \affiliation, \ns, \acknowledgements]; 1 missing file[jfm.cls].
155507 2013-02-28 07:45:12 /0108/cond-mat.0108371 310000[\meter].
155508 2013-02-28 07:45:07 /0108/cond-mat.0108374 430000[\@affiliation].
155509 2013-02-28 07:44:05 /0108/cond-mat.0108348 280000[\sodauthor, \rauthor, \address, \sodtitle, \dates, \lat, \PACS, \rtitle].
155510 2013-02-28 07:43:31 /0108/cond-mat.0108357 010000[{spacing}].
155511 2013-02-28 07:42:23 /0108/cond-mat.0108331 420000[\PACS]; 1 missing file[size11.clo.sty].
155512 2013-02-28 07:42:12 /0108/cond-mat.0108324 010000[\theappendix].
155513 2013-02-28 07:41:46 /0108/cond-mat.0108310 2100000[\pacs, \affiliation, \acknowledgements, {ruledtabular}, \onlinecite]; 1 missing file[revtex4b4.cls].
155514 2013-02-28 07:41:28 /0108/cond-mat.0108296 410000[\citeasnoun].
155515 2013-02-28 07:40:32 /0108/cond-mat.0108288 1120000[\twofigures, \email, \@affiliation, \onefigure, \etal].
155516 2013-02-28 07:40:31 /0108/cond-mat.0108269 3940000[\BoxedEPSF, \SetTexturesEPSFSpecial, \HideDisplacementBoxes]; 1 missing file[BoxedEPS.tex].
155517 2013-02-28 07:39:03 /0108/cond-mat.0108268 420000[\epsfile]; 1 missing file[epsbox.sty].
155518 2013-02-28 07:38:56 /0108/cond-mat.0108255 1180000[\overset].
155519 2013-02-28 07:37:27 /0108/cond-mat.0108237 110000[\psfrag].
155520 2013-02-28 07:37:07 /0108/cond-mat.0108239 210000[\QOVERD].
155521 2013-02-28 07:36:42 /0108/cond-mat.0108222 960000[\twofigures, \@affiliation, \onefigure].
155522 2013-02-28 07:36:32 /0108/cond-mat.0108224 030000[\@affiliation].
155523 2013-02-28 07:35:46 /0108/cond-mat.0108212 620000[\psfig]; 1 missing file[psfig].
155524 2013-02-28 07:35:27 /0108/cond-mat.0108203 3120000[\boldsymbol, \tfrac].
155525 2013-02-28 07:34:53 /0108/cond-mat.0108204 010000[{subequations}].
155526 2013-02-28 07:34:22 /0108/cond-mat.0108191 850000[\@affiliation, \onefigure].
155527 2013-02-28 07:33:19 /0108/cond-mat.0108184 230000[\copyrightyear, \eqref, \layoutstyle].
155528 2013-02-28 07:33:05 /0108/cond-mat.0108186 910000[\epsfsize].
155529 2013-02-28 07:29:59 /0108/cond-mat.0108135 010000[\a].
155530 2013-02-28 07:28:58 /0108/cond-mat.0108131 310000[\rotate].
155531 2013-02-28 07:28:22 /0108/cond-mat.0108118 13120000[\PRB, \Journal, \citelow, \ZPB, \abstracts, \PRL, \RMP]; 1 missing file[ws.sty].
155532 2013-02-28 07:24:35 /0108/cond-mat.0108056 210000[\toctitle].
155533 2013-02-28 07:24:12 /0108/cond-mat.0108041 730000[\address, \psbox]; 1 missing file[psbox.tex].
155534 2013-02-28 07:23:03 /0108/cond-mat.0108023 2110000[\rotate].
155535 2013-02-28 07:21:59 /0108/cond-mat.0108025 810000[\date].
155536 2013-02-28 07:21:47 /0108/cond-mat.0108013 010000[\toctitle].
155537 2013-02-28 07:21:35 /0108/cond-mat.0108011 060000[\@affiliation, \onefigure].
155538 2013-02-28 07:21:23 /0108/astro-ph.0108520 0190000[\epsfclipon, \submitted, \epsffile, \epsfxsize]; 1 missing file[apjfonts.sty].
155539 2013-02-28 07:21:17 /0108/astro-ph.0108519 040000[\affil, \reference, {references}]; 1 missing file[newpasp.sty].
155540 2013-02-28 07:21:14 /0108/astro-ph.0108523 6250000[\affil, \apj, \aj, \plotfiddle, \aap, \micron, \reference, {references}, \plottwo]; 1 missing file[newpasp.sty].
155541 2013-02-28 07:21:11 /0108/astro-ph.0108513 31190000[\theappendix].
155542 2013-02-28 07:21:10 /0108/astro-ph.0108509 020000[\toctitle, \micro].
155543 2013-02-28 07:20:40 /0108/astro-ph.0108517 030000[\extrasenglish, \dateenglish, \captionsenglish].
155544 2013-02-28 07:20:32 /0108/astro-ph.0108499 420000[\theappendix].
155545 2013-02-28 07:20:26 /0108/astro-ph.0108516 120000[\setpapersize, \setmarginsrb].
155546 2013-02-28 07:20:21 /0108/astro-ph.0108502 810000[\theappendix].
155547 2013-02-28 07:20:12 /0108/astro-ph.0108480 105280000[\submitted]; 1 missing file[apjfonts.sty].
155548 2013-02-28 07:20:10 /0108/astro-ph.0108501 0110000[\affil, \apj, \keywords, \altaffilmark, \sun, \reference, \object, \altaffiltext, {references}, \acknowledgements]; 1 missing file[iau185.sty].
155549 2013-02-28 07:20:02 /0108/astro-ph.0108506 2120000[\submitted]; 1 missing file[timesfonts.sty].
155550 2013-02-28 07:19:55 /0108/astro-ph.0108490 1410000[\affil, \apj, \aaps, \pasj, \apjl, \aap, \Accepted, \email, \kword, \Received, \apjs, \mnras, \FigureFile, \gtrsim, \citet, \authorcite, \SetRunningHead]; 1 missing file[pasj00.cls].
155551 2013-02-28 07:19:52 /0108/astro-ph.0108489 030000[\extrasenglish, \dateenglish, \captionsenglish].
155552 2013-02-28 07:19:35 /0108/astro-ph.0108491 180000[\arcmin, \inst, \astroncite, \object, \degr, \institute, {acknowledgements}, \keywords]; 1 missing file[toledoStyle.cls].
155553 2013-02-28 07:19:27 /0108/astro-ph.0108493 030000[\affil, \plotone]; 1 missing file[mrs2001.sty].
155554 2013-02-28 07:19:21 /0108/astro-ph.0108494 010000[\toctitle].
155555 2013-02-28 07:19:21 /0108/astro-ph.0108498 260000[\affil, \apj, \aj, \reference, {references}]; 1 missing file[newpasp.sty].
155556 2013-02-28 07:19:12 /0108/astro-ph.0108479 190000[\submitted].
155557 2013-02-28 07:19:06 /0108/astro-ph.0108481 3110000[\arcmin, \affil, \threequarters, \acknowledgments, \sun, \reference, \arcsec, \onequarter, {references}, \onehalf]; 1 missing file[newpasp.sty].
155558 2013-02-28 07:18:21 /0108/astro-ph.0108488 0120000[\affil, \plotone, \acknowledgements, \plottwo]; 1 missing file[mrs2001.sty].
155559 2013-02-28 07:18:20 /0108/astro-ph.0108487 260000[\epsfbox, \institute, \acknowledgements, \runningtitle, {opening}, \epsfxsize].
155560 2013-02-28 07:18:09 /0108/astro-ph.0108475 2120000[\affil, \resumen, \shortauthor, \ReceivedDate, \dateenglish, \extrasenglish, \shorttitle, \acknowledgements, \AcceptedDate, \fulladdresses, \captionsenglish].
155561 2013-02-28 07:17:42 /0108/astro-ph.0108473 020000[\submitted]; 1 missing file[apjfonts.sty].
155562 2013-02-28 07:17:04 /0108/astro-ph.0108468 1520000[\psfig]; 1 missing file[psfig.tex].
155563 2013-02-28 07:16:27 /0108/astro-ph.0108466 5160000[\affil, \apj, \aj, \aap, \acknowledgments, \la, \sun, \mnras, \apjs, \pasp, \plotone, \reference, {references}, \araa, \plottwo]; 1 missing file[newpasp.sty].
155564 2013-02-28 07:16:07 /0108/astro-ph.0108449 020000[\affil]; 1 missing file[newpasp.sty].
155565 2013-02-28 07:15:42 /0108/astro-ph.0108455 160000[\affil, \runninghead, \correspondence, \firstpage, {acknowledgements}, \pubyear]; 1 missing file[icrc.cls].
155566 2013-02-28 07:15:22 /0108/astro-ph.0108442 1010000[\fancyplain].
155567 2013-02-28 07:14:59 /0108/astro-ph.0108432 010000[\toctitle].
155568 2013-02-28 07:14:51 /0108/astro-ph.0108433 1250000[\submitted]; 2 missing files[apjfonts.sty, timesfonts.sty].
155569 2013-02-28 07:14:45 /0108/astro-ph.0108428 1910000[\tableheadfrac].
155570 2013-02-28 07:14:32 /0108/astro-ph.0108420 1010000[\theappendix].
155571 2013-02-28 07:14:20 /0108/astro-ph.0108424 610000[\submitted].
155572 2013-02-28 07:13:58 /0108/astro-ph.0108421 0100000[\affil, \apj, \aj, \acknowledgments, \mnras, \apjs, \reference, {references}, \araa]; 1 missing file[newpasp.sty].
155573 2013-02-28 07:13:56 /0108/astro-ph.0108426 740000[\authorinfo, \skiplinehalf, \acknowledgments, \keywords].
155574 2013-02-28 07:13:53 /0108/astro-ph.0108423 180000[\psfig].
155575 2013-02-28 07:13:49 /0108/astro-ph.0108425 010000[\toctitle].
155576 2013-02-28 07:13:46 /0108/astro-ph.0108412 010000[\harvarditem].
155577 2013-02-28 07:13:43 /0108/astro-ph.0108427 0140000[\affil, \sun, \plotone, \reference, \arcsec, {references}, \farcs, \plottwo]; 1 missing file[newpasp.sty].
155578 2013-02-28 07:13:36 /0108/astro-ph.0108409 0110000[\affil, \apj, \plotfiddle, \prl, \acknowledgments, \mnras, \reference, \prd, {references}]; 1 missing file[newpasp.sty].
155579 2013-02-28 07:13:09 /0108/astro-ph.0108397 1010000[\theappendix].
155580 2013-02-28 07:12:50 /0108/astro-ph.0108401 380000[\affil, \citep, \correspondence, \firstpage, \citet, \pubyear, \balance, {acknowledgements}]; 1 missing file[icrc.cls].
155581 2013-02-28 07:12:37 /0108/astro-ph.0108407 010000[\nofiles].
155582 2013-02-28 07:12:26 /0108/astro-ph.0108391 150000[\affil, \runninghead, \correspondence, \firstpage, \pubyear]; 1 missing file[icrc.cls].
155583 2013-02-28 07:12:25 /0108/astro-ph.0108390 160000[\affil, \runninghead, \correspondence, \firstpage, {acknowledgements}, \pubyear]; 1 missing file[icrc.cls].
155584 2013-02-28 07:12:23 /0108/astro-ph.0108392 150000[\affil, \runninghead, \correspondence, \firstpage, \pubyear]; 1 missing file[icrc.cls].
155585 2013-02-28 07:12:17 /0108/astro-ph.0108393 160000[\affil, \runninghead, \correspondence, \firstpage, {acknowledgements}, \pubyear]; 1 missing file[icrc.cls].
155586 2013-02-28 07:12:10 /0108/astro-ph.0108396 280000[\affil, \apjs, \apj, \aj, \reference, {references}, \apjl]; 1 missing file[newpasp.sty].
155587 2013-02-28 07:12:03 /0108/astro-ph.0108383 2110000[\submitted].
155588 2013-02-28 07:11:55 /0108/astro-ph.0108381 050000[\affil, \reference, {references}, \acknowledgements]; 1 missing file[newpasp.sty].
155589 2013-02-28 07:11:49 /0108/astro-ph.0108384 160000[\affil, \runninghead, \correspondence, \firstpage, {acknowledgements}, \pubyear]; 1 missing file[icrc.cls].
155590 2013-02-28 07:11:39 /0108/astro-ph.0108385 160000[\affil, \runninghead, \correspondence, \firstpage, {acknowledgements}, \pubyear]; 1 missing file[icrc.cls].
155591 2013-02-28 07:11:32 /0108/astro-ph.0108388 090000[\affil, \reference, {references}, \psfig]; 2 missing files[psfig, newpasp.sty].
155592 2013-02-28 07:11:26 /0108/astro-ph.0108373 730000[\theappendix].
155593 2013-02-28 07:11:09 /0108/astro-ph.0108375 3620000[Align]; 1 missing file[psfig].
155594 2013-02-28 07:10:53 /0108/astro-ph.0108372 160000[\affil, \runninghead, \correspondence, \firstpage, {acknowledgements}, \pubyear]; 1 missing file[icrc.cls].
155595 2013-02-28 07:10:41 /0108/astro-ph.0108359 010000[\theappendix].
155596 2013-02-28 07:10:30 /0108/astro-ph.0108358 070000[\citeauthoryear, \affil, \gtrsim, \acknowledgements, \plotfiddle, \keywords]; 1 missing file[my.sty].
155597 2013-02-28 07:10:20 /0108/astro-ph.0108363 720000[\address, \TitreGlobal]; 1 missing file[edp-conf.cls].
155598 2013-02-28 07:10:06 /0108/astro-ph.0108364 060000[\affil, \reference, {references}, \ga, \la]; 1 missing file[newpasp.sty].
155599 2013-02-28 07:10:01 /0108/astro-ph.0108349 1060000[\affil, \reference, \plotone, {references}, \plotfiddle]; 1 missing file[newpasp.sty].
155600 2013-02-28 07:09:57 /0108/astro-ph.0108348 170000[\affil, \citep, \correspondence, \firstpage, \citet, {acknowledgements}, \pubyear]; 1 missing file[icrc.cls].
<<< >>>

[0] [200] [400] [600] [800] [1000] [1200] [1400] [1600] [1800] [2000] [2200] [2400] [2600] [2800] [3000] [3200] [3400] [3600] [3800] [4000] [4200] [4400] [4600] [4800] [5000] [5200] [5400] [5600] [5800] [6000] [6200] [6400] [6600] [6800] [7000] [7200] [7400] [7600] [7800] [8000] [8200] [8400] [8600] [8800] [9000] [9200] [9400] [9600] [9800] [10000] [10200] [10400] [10600] [10800] [11000] [11200] [11400] [11600] [11800] [12000] [12200] [12400] [12600] [12800] [13000] [13200] [13400] [13600] [13800] [14000] [14200] [14400] [14600] [14800] [15000] [15200] [15400] [15600] [15800] [16000] [16200] [16400] [16600] [16800] [17000] [17200] [17400] [17600] [17800] [18000] [18200] [18400] [18600] [18800] [19000] [19200] [19400] [19600] [19800] [20000] [20200] [20400] [20600] [20800] [21000] [21200] [21400] [21600] [21800] [22000] [22200] [22400] [22600] [22800] [23000] [23200] [23400] [23600] [23800] [24000] [24200] [24400] [24600] [24800] [25000] [25200] [25400] [25600] [25800] [26000] [26200] [26400] [26600] [26800] [27000] [27200] [27400] [27600] [27800] [28000] [28200] [28400] [28600] [28800] [29000] [29200] [29400] [29600] [29800] [30000] [30200] [30400] [30600] [30800] [31000] [31200] [31400] [31600] [31800] [32000] [32200] [32400] [32600] [32800] [33000] [33200] [33400] [33600] [33800] [34000] [34200] [34400] [34600] [34800] [35000] [35200] [35400] [35600] [35800] [36000] [36200] [36400] [36600] [36800] [37000] [37200] [37400] [37600] [37800] [38000] [38200] [38400] [38600] [38800] [39000] [39200] [39400] [39600] [39800] [40000] [40200] [40400] [40600] [40800] [41000] [41200] [41400] [41600] [41800] [42000] [42200] [42400] [42600] [42800] [43000] [43200] [43400] [43600] [43800] [44000] [44200] [44400] [44600] [44800] [45000] [45200] [45400] [45600] [45800] [46000] [46200] [46400] [46600] [46800] [47000] [47200] [47400] [47600] [47800] [48000] [48200] [48400] [48600] [48800] [49000] [49200] [49400] [49600] [49800] [50000] [50200] [50400] [50600] [50800] [51000] [51200] [51400] [51600] [51800] [52000] [52200] [52400] [52600] [52800] [53000] [53200] [53400] [53600] [53800] [54000] [54200] [54400] [54600] [54800] [55000] [55200] [55400] [55600] [55800] [56000] [56200] [56400] [56600] [56800] [57000] [57200] [57400] [57600] [57800] [58000] [58200] [58400] [58600] [58800] [59000] [59200] [59400] [59600] [59800] [60000] [60200] [60400] [60600] [60800] [61000] [61200] [61400] [61600] [61800] [62000] [62200] [62400] [62600] [62800] [63000] [63200] [63400] [63600] [63800] [64000] [64200] [64400] [64600] [64800] [65000] [65200] [65400] [65600] [65800] [66000] [66200] [66400] [66600] [66800] [67000] [67200] [67400] [67600] [67800] [68000] [68200] [68400] [68600] [68800] [69000] [69200] [69400] [69600] [69800] [70000] [70200] [70400] [70600] [70800] [71000] [71200] [71400] [71600] [71800] [72000] [72200] [72400] [72600] [72800] [73000] [73200] [73400] [73600] [73800] [74000] [74200] [74400] [74600] [74800] [75000] [75200] [75400] [75600] [75800] [76000] [76200] [76400] [76600] [76800] [77000] [77200] [77400] [77600] [77800] [78000] [78200] [78400] [78600] [78800] [79000] [79200] [79400] [79600] [79800] [80000] [80200] [80400] [80600] [80800] [81000] [81200] [81400] [81600] [81800] [82000] [82200] [82400] [82600] [82800] [83000] [83200] [83400] [83600] [83800] [84000] [84200] [84400] [84600] [84800] [85000] [85200] [85400] [85600] [85800] [86000] [86200] [86400] [86600] [86800] [87000] [87200] [87400] [87600] [87800] [88000] [88200] [88400] [88600] [88800] [89000] [89200] [89400] [89600] [89800] [90000] [90200] [90400] [90600] [90800] [91000] [91200] [91400] [91600] [91800] [92000] [92200] [92400] [92600] [92800] [93000] [93200] [93400] [93600] [93800] [94000] [94200] [94400] [94600] [94800] [95000] [95200] [95400] [95600] [95800] [96000] [96200] [96400] [96600] [96800] [97000] [97200] [97400] [97600] [97800] [98000] [98200] [98400] [98600] [98800] [99000] [99200] [99400] [99600] [99800] [100000] [100200] [100400] [100600] [100800] [101000] [101200] [101400] [101600] [101800] [102000] [102200] [102400] [102600] [102800] [103000] [103200] [103400] [103600] [103800] [104000] [104200] [104400] [104600] [104800] [105000] [105200] [105400] [105600] [105800] [106000] [106200] [106400] [106600] [106800] [107000] [107200] [107400] [107600] [107800] [108000] [108200] [108400] [108600] [108800] [109000] [109200] [109400] [109600] [109800] [110000] [110200] [110400] [110600] [110800] [111000] [111200] [111400] [111600] [111800] [112000] [112200] [112400] [112600] [112800] [113000] [113200] [113400] [113600] [113800] [114000] [114200] [114400] [114600] [114800] [115000] [115200] [115400] [115600] [115800] [116000] [116200] [116400] [116600] [116800] [117000] [117200] [117400] [117600] [117800] [118000] [118200] [118400] [118600] [118800] [119000] [119200] [119400] [119600] [119800] [120000] [120200] [120400] [120600] [120800] [121000] [121200] [121400] [121600] [121800] [122000] [122200] [122400] [122600] [122800] [123000] [123200] [123400] [123600] [123800] [124000] [124200] [124400] [124600] [124800] [125000] [125200] [125400] [125600] [125800] [126000] [126200] [126400] [126600] [126800] [127000] [127200] [127400] [127600] [127800] [128000] [128200] [128400] [128600] [128800] [129000] [129200] [129400] [129600] [129800] [130000] [130200] [130400] [130600] [130800] [131000] [131200] [131400] [131600] [131800] [132000] [132200] [132400] [132600] [132800] [133000] [133200] [133400] [133600] [133800] [134000] [134200] [134400] [134600] [134800] [135000] [135200] [135400] [135600] [135800] [136000] [136200] [136400] [136600] [136800] [137000] [137200] [137400] [137600] [137800] [138000] [138200] [138400] [138600] [138800] [139000] [139200] [139400] [139600] [139800] [140000] [140200] [140400] [140600] [140800] [141000] [141200] [141400] [141600] [141800] [142000] [142200] [142400] [142600] [142800] [143000] [143200] [143400] [143600] [143800] [144000] [144200] [144400] [144600] [144800] [145000] [145200] [145400] [145600] [145800] [146000] [146200] [146400] [146600] [146800] [147000] [147200] [147400] [147600] [147800] [148000] [148200] [148400] [148600] [148800] [149000] [149200] [149400] [149600] [149800] [150000] [150200] [150400] [150600] [150800] [151000] [151200] [151400] [151600] [151800] [152000] [152200] [152400] [152600] [152800] [153000] [153200] [153400] [153600] [153800] [154000] [154200] [154400] [154600] [154800] [155000] [155200] [155400] [155600] [155800] [156000] [156200] [156400] [156600] [156800] [157000] [157200] [157400] [157600] [157800] [158000] [158200] [158400] [158600] [158800] [159000] [159200] [159400] [159600] [159800] [160000] [160200] [160400] [160600] [160800] [161000] [161200] [161400] [161600] [161800] [162000] [162200] [162400] [162600] [162800] [163000] [163200] [163400] [163600] [163800] [164000] [164200] [164400] [164600]
 
  The service has been written by
Heinrich Stamerjohanns